Time;durP1;ratioP1;P1;durP2;ratioP2;P2;SDS_P1;SDS_P2;PMS_P1;PMS_P2;Temp;Humidity;BMP_temperature;BMP_pressure;BME280_temperature;BME280_humidity;BME280_pressure;Samples;Min_cycle;Max_cycle;Signal;HPM_P1;HPM_P2
2022/01/03 00:02:12;;;;;;;0.55;0.20;;;;;;;;;;5035037;28;20031;-64
2022/01/03 00:04:37;;;;;;;0.70;0.20;;;;;;;;;;5035049;28;20037;-63
2022/01/03 00:07:03;;;;;;;0.85;0.38;;;;;;;;;;5034785;28;20021;-63
2022/01/03 00:09:28;;;;;;;0.98;0.35;;;;;;;;;;5034895;28;20530;-63
2022/01/03 00:11:53;;;;;;;0.80;0.20;;;;;;;;;;5034733;28;20024;-64
2022/01/03 00:14:19;;;;;;;0.68;0.40;;;;;;;;;;5034999;28;20097;-65
2022/01/03 00:16:44;;;;;;;0.55;0.20;;;;;;;;;;5016959;28;20032;-64
2022/01/03 00:19:09;;;;;;;0.70;0.13;;;;;;;;;;5033591;28;20033;-65
2022/01/03 00:21:44;;;;;;;0.32;0.10;;;;;;;;;;5034639;28;20041;-64
2022/01/03 00:24:10;;;;;;;2.85;0.30;;;;;;;;;;5038905;28;20021;-64
2022/01/03 00:26:36;;;;;;;0.85;0.10;;;;;;;;;;5054591;28;20091;-65
2022/01/03 00:29:09;;;;;;;0.55;0.30;;;;;;;;;;5054281;28;20410;-65
2022/01/03 00:31:35;;;;;;;0.20;0.20;;;;;;;;;;5054503;28;20368;-65
2022/01/03 00:34:01;;;;;;;0.47;0.20;;;;;;;;;;5054147;28;20037;-66
2022/01/03 00:36:30;;;;;;;0.85;0.30;;;;;;;;;;5036438;28;20094;-66
2022/01/03 00:38:56;;;;;;;0.32;0.28;;;;;;;;;;5054067;28;20472;-66
2022/01/03 00:41:21;;;;;;;0.77;0.27;;;;;;;;;;5054295;28;20346;-66
2022/01/03 00:43:47;;;;;;;0.32;0.10;;;;;;;;;;5054060;28;20033;-64
2022/01/03 00:46:13;;;;;;;0.47;0.20;;;;;;;;;;5054153;28;20111;-65
2022/01/03 00:48:38;;;;;;;1.17;0.35;;;;;;;;;;5054083;28;20471;-65
2022/01/03 00:51:03;;;;;;;0.17;0.17;;;;;;;;;;5054088;28;20044;-65
2022/01/03 00:53:29;;;;;;;0.77;0.22;;;;;;;;;;5036164;28;20454;-65
2022/01/03 00:56:04;;;;;;;1.00;0.28;;;;;;;;;;5053904;28;20491;-65
2022/01/03 00:58:33;;;;;;;0.85;0.30;;;;;;;;;;5053935;28;20017;-64
2022/01/03 01:00:59;;;;;;;0.35;0.30;;;;;;;;;;5053774;28;20422;-65
2022/01/03 01:03:31;;;;;;;0.30;0.20;;;;;;;;;;5053829;28;20067;-65
2022/01/03 01:05:57;;;;;;;0.20;0.20;;;;;;;;;;5053477;28;20124;-65
2022/01/03 01:08:23;;;;;;;1.17;0.25;;;;;;;;;;5053692;28;20116;-64
2022/01/03 01:10:51;;;;;;;0.05;0.05;;;;;;;;;;5053562;28;20013;-66
2022/01/03 01:13:16;;;;;;;1.30;0.20;;;;;;;;;;5053684;28;20024;-65
2022/01/03 01:15:41;;;;;;;1.45;0.30;;;;;;;;;;5035601;28;20017;-65
2022/01/03 01:18:07;;;;;;;0.30;0.25;;;;;;;;;;5053562;28;20071;-65
2022/01/03 01:20:35;;;;;;;0.43;0.20;;;;;;;;;;5053601;28;20403;-66
2022/01/03 01:23:00;;;;;;;0.20;0.20;;;;;;;;;;5053314;28;20016;-66
2022/01/03 01:28:00;;;;;;;0.85;0.30;;;;;;;;;;5033558;28;20017;-66
2022/01/03 01:30:27;;;;;;;2.13;0.28;;;;;;;;;;5015325;28;20091;-65
2022/01/03 01:33:02;;;;;;;1.08;0.30;;;;;;;;;;5033151;28;20380;-64
2022/01/03 01:35:40;;;;;;;0.55;0.38;;;;;;;;;;5033285;28;20028;-65
2022/01/03 01:38:07;;;;;;;0.35;0.30;;;;;;;;;;5033237;28;20013;-64
2022/01/03 01:40:33;;;;;;;0.40;0.17;;;;;;;;;;5033355;28;20028;-64
2022/01/03 01:42:59;;;;;;;0.22;0.20;;;;;;;;;;5033571;28;20021;-64
2022/01/03 01:45:26;;;;;;;0.63;0.22;;;;;;;;;;5033143;28;20025;-65
2022/01/03 01:47:53;;;;;;;0.35;0.20;;;;;;;;;;5032832;28;20168;-65
2022/01/03 01:50:20;;;;;;;0.45;0.28;;;;;;;;;;5033220;28;20041;-65
2022/01/03 01:52:46;;;;;;;0.45;0.10;;;;;;;;;;5015281;28;20490;-65
2022/01/03 01:55:13;;;;;;;0.20;0.00;;;;;;;;;;5015107;28;20119;-65
2022/01/03 01:57:42;;;;;;;0.47;0.17;;;;;;;;;;5032929;28;20068;-65
2022/01/03 02:00:08;;;;;;;0.35;0.17;;;;;;;;;;5032840;28;20025;-64
2022/01/03 02:02:37;;;;;;;1.33;0.20;;;;;;;;;;5032878;28;20031;-65
2022/01/03 02:05:10;;;;;;;0.85;0.10;;;;;;;;;;5032922;23;20060;-65
2022/01/03 02:07:53;;;;;;;2.63;0.50;;;;;;;;;;5032796;28;20096;-65
2022/01/03 02:10:24;;;;;;;0.20;0.20;;;;;;;;;;5032959;28;20041;-65
2022/01/03 02:12:49;;;;;;;0.17;0.17;;;;;;;;;;5032481;28;20104;-65
2022/01/03 02:15:16;;;;;;;0.77;0.20;;;;;;;;;;5032630;28;20041;-64
2022/01/03 02:17:44;;;;;;;0.20;0.20;;;;;;;;;;5032704;28;20032;-63
2022/01/03 02:20:13;;;;;;;0.30;0.10;;;;;;;;;;5032602;28;20526;-65
2022/01/03 02:22:39;;;;;;;0.20;0.20;;;;;;;;;;5032602;28;20032;-65
2022/01/03 02:25:06;;;;;;;1.45;0.40;;;;;;;;;;5032412;28;20092;-65
2022/01/03 02:27:32;;;;;;;0.40;0.20;;;;;;;;;;5032731;28;20036;-65
2022/01/03 02:29:57;;;;;;;0.55;0.20;;;;;;;;;;5032375;28;20373;-64
2022/01/03 02:32:22;;;;;;;0.75;0.45;;;;;;;;;;5032469;28;20032;-65
2022/01/03 02:34:48;;;;;;;0.38;0.13;;;;;;;;;;5032278;28;20049;-65
2022/01/03 02:37:13;;;;;;;0.85;0.10;;;;;;;;;;5032281;28;20039;-64
2022/01/03 02:39:38;;;;;;;0.50;0.20;;;;;;;;;;5032504;28;20028;-64
2022/01/03 02:42:04;;;;;;;0.32;0.20;;;;;;;;;;5031675;28;20017;-64
2022/01/03 02:44:29;;;;;;;0.40;0.20;;;;;;;;;;5032197;28;20021;-63
2022/01/03 02:46:54;;;;;;;0.83;0.20;;;;;;;;;;5032057;28;20025;-63
2022/01/03 02:49:19;;;;;;;0.40;0.20;;;;;;;;;;5032178;28;20318;-63
2022/01/03 02:51:44;;;;;;;2.17;0.30;;;;;;;;;;5032203;28;20045;-64
2022/01/03 02:54:10;;;;;;;1.95;0.65;;;;;;;;;;5032214;28;20243;-64
2022/01/03 02:56:36;;;;;;;0.95;0.30;;;;;;;;;;5032207;28;20095;-64
2022/01/03 02:59:01;;;;;;;0.43;0.10;;;;;;;;;;5031969;28;20487;-64
2022/01/03 03:01:26;;;;;;;1.45;0.10;;;;;;;;;;5032123;28;20235;-64
2022/01/03 03:03:51;;;;;;;0.35;0.17;;;;;;;;;;5035893;28;20049;-64
2022/01/03 03:06:17;;;;;;;1.80;0.20;;;;;;;;;;5052131;28;20391;-64
2022/01/03 03:08:42;;;;;;;0.30;0.25;;;;;;;;;;5051784;28;20288;-64
2022/01/03 03:11:07;;;;;;;0.35;0.13;;;;;;;;;;5051929;28;20009;-65
2022/01/03 03:13:32;;;;;;;0.25;0.10;;;;;;;;;;5051971;28;20375;-65
2022/01/03 03:15:58;;;;;;;0.73;0.10;;;;;;;;;;5051874;28;20067;-64
2022/01/03 03:18:24;;;;;;;0.28;0.28;;;;;;;;;;5051959;28;20256;-64
2022/01/03 03:20:49;;;;;;;1.33;0.30;;;;;;;;;;5051722;28;20028;-64
2022/01/03 03:23:15;;;;;;;0.20;0.10;;;;;;;;;;5051772;28;20106;-65
2022/01/03 03:25:40;;;;;;;0.75;0.20;;;;;;;;;;5051810;28;20025;-65
2022/01/03 03:28:07;;;;;;;0.10;0.05;;;;;;;;;;5052006;28;20009;-65
2022/01/03 03:30:36;;;;;;;1.45;0.20;;;;;;;;;;5052216;28;20013;-65
2022/01/03 03:33:09;;;;;;;0.20;0.10;;;;;;;;;;5051891;28;20104;-65
2022/01/03 03:35:35;;;;;;;0.10;0.10;;;;;;;;;;5051796;28;20020;-64
2022/01/03 03:38:00;;;;;;;0.30;0.13;;;;;;;;;;5051636;28;20021;-65
2022/01/03 03:40:25;;;;;;;0.40;0.20;;;;;;;;;;5033912;28;20028;-65
2022/01/03 03:42:50;;;;;;;0.90;0.22;;;;;;;;;;5051523;28;20729;-65
2022/01/03 03:45:16;;;;;;;0.50;0.20;;;;;;;;;;5051654;28;20033;-64
2022/01/03 03:47:41;;;;;;;0.57;0.10;;;;;;;;;;5051565;28;20284;-64
2022/01/03 03:50:06;;;;;;;0.80;0.20;;;;;;;;;;5051557;28;20024;-64
2022/01/03 03:52:32;;;;;;;0.15;0.15;;;;;;;;;;5051739;28;20017;-64
2022/01/03 03:54:57;;;;;;;0.47;0.10;;;;;;;;;;5053947;28;20468;-65
2022/01/03 03:57:23;;;;;;;0.20;0.20;;;;;;;;;;5055248;28;20035;-65
2022/01/03 03:59:48;;;;;;;0.70;0.20;;;;;;;;;;5055017;28;20012;-65
2022/01/03 04:02:13;;;;;;;0.85;0.30;;;;;;;;;;5055049;28;20074;-64
2022/01/03 04:04:38;;;;;;;0.67;0.10;;;;;;;;;;5054860;28;20090;-64
2022/01/03 04:07:03;;;;;;;0.10;0.10;;;;;;;;;;5055152;28;20605;-65
2022/01/03 04:09:29;;;;;;;0.60;0.32;;;;;;;;;;5054799;28;20087;-65
2022/01/03 04:11:54;;;;;;;0.40;0.20;;;;;;;;;;5054712;28;20025;-64
2022/01/03 04:14:19;;;;;;;0.52;0.28;;;;;;;;;;5054923;28;20029;-64
2022/01/03 04:16:44;;;;;;;0.75;0.20;;;;;;;;;;5054692;28;20028;-64
2022/01/03 04:19:10;;;;;;;2.75;0.35;;;;;;;;;;5054731;28;20021;-64
2022/01/03 04:21:37;;;;;;;0.85;0.28;;;;;;;;;;5054772;28;20021;-65
2022/01/03 04:24:02;;;;;;;0.60;0.17;;;;;;;;;;5051268;28;20468;-64
2022/01/03 04:26:27;;;;;;;0.63;0.28;;;;;;;;;;5034757;28;20029;-65
2022/01/03 04:28:52;;;;;;;0.38;0.10;;;;;;;;;;5034361;28;20021;-65
2022/01/03 04:31:18;;;;;;;0.50;0.10;;;;;;;;;;5034669;28;20049;-64
2022/01/03 04:33:43;;;;;;;0.47;0.10;;;;;;;;;;5034564;28;20609;-63
2022/01/03 04:36:09;;;;;;;1.80;0.38;;;;;;;;;;5034482;28;20592;-63
2022/01/03 04:38:35;;;;;;;0.57;0.17;;;;;;;;;;5034536;28;20044;-63
2022/01/03 04:41:00;;;;;;;0.47;0.20;;;;;;;;;;5034152;28;20453;-63
2022/01/03 04:43:26;;;;;;;0.43;0.17;;;;;;;;;;5034355;28;20096;-63
2022/01/03 04:45:51;;;;;;;0.43;0.17;;;;;;;;;;5034251;28;20404;-64
2022/01/03 04:48:16;;;;;;;0.10;0.00;;;;;;;;;;5034495;28;20037;-64
2022/01/03 04:50:41;;;;;;;0.73;0.10;;;;;;;;;;5034212;28;20251;-64
2022/01/03 04:53:06;;;;;;;0.40;0.40;;;;;;;;;;5034183;28;20124;-63
2022/01/03 04:55:31;;;;;;;0.57;0.30;;;;;;;;;;5034155;28;20289;-63
2022/01/03 04:57:57;;;;;;;0.90;0.13;;;;;;;;;;5033981;28;20255;-63
2022/01/03 05:00:22;;;;;;;0.77;0.10;;;;;;;;;;5016309;28;20263;-63
2022/01/03 05:02:47;;;;;;;0.40;0.10;;;;;;;;;;5033934;28;20246;-63
2022/01/03 05:05:13;;;;;;;0.90;0.50;;;;;;;;;;5033026;28;20839;-63
2022/01/03 05:07:38;;;;;;;1.50;0.35;;;;;;;;;;5033915;28;20501;-64
2022/01/03 05:10:04;;;;;;;0.57;0.30;;;;;;;;;;5033720;28;20022;-63
2022/01/03 05:12:30;;;;;;;0.98;0.28;;;;;;;;;;5033877;28;20473;-63
2022/01/03 05:14:55;;;;;;;0.85;0.20;;;;;;;;;;5033533;28;20021;-63
2022/01/03 05:17:20;;;;;;;0.90;0.30;;;;;;;;;;5033767;28;20025;-63
2022/01/03 05:19:45;;;;;;;0.32;0.32;;;;;;;;;;5033652;28;20282;-63
2022/01/03 05:22:10;;;;;;;0.50;0.20;;;;;;;;;;5033661;28;20029;-63
2022/01/03 05:24:37;;;;;;;1.52;0.25;;;;;;;;;;5041869;28;20378;-64
2022/01/03 05:27:02;;;;;;;0.57;0.30;;;;;;;;;;5053307;28;20009;-63
2022/01/03 05:29:28;;;;;;;0.32;0.10;;;;;;;;;;5053339;28;20024;-64
2022/01/03 05:31:53;;;;;;;0.70;0.40;;;;;;;;;;5053229;28;20047;-64
2022/01/03 05:34:18;;;;;;;0.52;0.20;;;;;;;;;;5035570;28;20422;-64
2022/01/03 05:36:45;;;;;;;0.55;0.13;;;;;;;;;;5053170;28;20140;-64
2022/01/03 05:39:10;;;;;;;0.30;0.10;;;;;;;;;;5053448;28;20029;-63
2022/01/03 05:41:35;;;;;;;0.30;0.10;;;;;;;;;;5053302;28;20037;-63
2022/01/03 05:44:00;;;;;;;0.40;0.00;;;;;;;;;;5035351;28;20783;-63
2022/01/03 05:46:26;;;;;;;2.13;0.20;;;;;;;;;;5053091;28;20032;-63
2022/01/03 05:48:51;;;;;;;3.30;0.25;;;;;;;;;;5034925;28;20021;-64
2022/01/03 05:51:16;;;;;;;1.20;0.22;;;;;;;;;;5052992;28;20017;-64
2022/01/03 05:53:41;;;;;;;0.73;0.37;;;;;;;;;;5052991;28;20460;-64
2022/01/03 05:56:06;;;;;;;0.80;0.10;;;;;;;;;;5052903;28;20021;-64
2022/01/03 05:58:32;;;;;;;1.47;0.33;;;;;;;;;;5052856;28;20709;-64
2022/01/03 06:00:58;;;;;;;0.88;0.43;;;;;;;;;;5052687;28;20250;-65
2022/01/03 06:03:24;;;;;;;1.23;0.13;;;;;;;;;;5034512;28;20024;-65
2022/01/03 06:08:21;;;;;;;0.77;0.25;;;;;;;;;;5053007;28;20482;-64
2022/01/03 06:10:46;;;;;;;0.47;0.20;;;;;;;;;;5052599;28;20083;-64
2022/01/03 06:13:11;;;;;;;0.55;0.20;;;;;;;;;;5052530;28;20017;-65
2022/01/03 06:15:37;;;;;;;0.30;0.10;;;;;;;;;;5052723;28;20372;-64
2022/01/03 06:18:04;;;;;;;0.45;0.30;;;;;;;;;;5052331;28;20399;-64
2022/01/03 06:20:29;;;;;;;0.30;0.30;;;;;;;;;;5052581;28;20375;-64
2022/01/03 06:22:54;;;;;;;1.08;0.28;;;;;;;;;;5052312;28;20436;-64
2022/01/03 06:25:20;;;;;;;0.57;0.40;;;;;;;;;;5038673;28;20018;-64
2022/01/03 06:27:45;;;;;;;1.23;0.60;;;;;;;;;;5032484;28;20271;-64
2022/01/03 06:30:12;;;;;;;0.97;0.43;;;;;;;;;;5032412;28;20017;-64
2022/01/03 06:32:37;;;;;;;2.47;0.32;;;;;;;;;;5032508;28;20251;-64
2022/01/03 06:35:02;;;;;;;0.13;0.10;;;;;;;;;;5032250;28;20372;-64
2022/01/03 06:37:27;;;;;;;0.82;0.20;;;;;;;;;;5014593;28;20254;-64
2022/01/03 06:39:53;;;;;;;0.83;0.20;;;;;;;;;;5032185;28;20028;-64
2022/01/03 06:42:18;;;;;;;0.63;0.20;;;;;;;;;;5032423;28;20255;-64
2022/01/03 06:44:48;;;;;;;0.85;0.30;;;;;;;;;;5032206;28;20017;-65
2022/01/03 06:47:13;;;;;;;0.82;0.10;;;;;;;;;;5032412;28;20083;-64
2022/01/03 06:49:38;;;;;;;0.73;0.17;;;;;;;;;;5032297;28;20021;-64
2022/01/03 06:52:04;;;;;;;1.52;0.32;;;;;;;;;;5032158;28;20022;-64
2022/01/03 06:54:30;;;;;;;0.77;0.10;;;;;;;;;;5032220;28;20034;-64
2022/01/03 06:56:55;;;;;;;1.75;0.20;;;;;;;;;;5031954;28;20413;-64
2022/01/03 06:59:20;;;;;;;0.10;0.10;;;;;;;;;;5032148;28;20074;-63
2022/01/03 07:01:45;;;;;;;0.30;0.20;;;;;;;;;;5014480;28;20068;-64
2022/01/03 07:04:10;;;;;;;0.93;0.40;;;;;;;;;;5031970;28;20072;-64
2022/01/03 07:06:36;;;;;;;0.60;0.10;;;;;;;;;;5032160;28;20262;-64
2022/01/03 07:09:05;;;;;;;0.68;0.38;;;;;;;;;;5032375;28;20281;-64
2022/01/03 07:11:30;;;;;;;0.38;0.25;;;;;;;;;;5032110;28;20052;-62
2022/01/03 07:14:06;;;;;;;0.97;0.30;;;;;;;;;;5031971;28;20104;-63
2022/01/03 07:19:15;;;;;;;0.13;0.13;;;;;;;;;;5031960;28;20148;-64
2022/01/03 07:21:40;;;;;;;0.85;0.20;;;;;;;;;;5031258;28;20462;-64
2022/01/03 07:24:05;;;;;;;0.20;0.20;;;;;;;;;;5035474;28;20025;-63
2022/01/03 07:26:30;;;;;;;1.20;0.17;;;;;;;;;;5051994;28;20033;-63
2022/01/03 07:28:55;;;;;;;0.50;0.10;;;;;;;;;;5052580;28;20379;-64
2022/01/03 07:31:21;;;;;;;0.50;0.20;;;;;;;;;;5037807;28;20498;-64
2022/01/03 07:33:47;;;;;;;1.17;0.20;;;;;;;;;;5055559;28;20415;-64
2022/01/03 07:36:12;;;;;;;0.30;0.22;;;;;;;;;;5055527;28;20448;-63
2022/01/03 07:38:38;;;;;;;2.60;0.20;;;;;;;;;;5055643;28;20021;-64
2022/01/03 07:41:03;;;;;;;0.65;0.22;;;;;;;;;;5055393;28;20391;-64
2022/01/03 07:43:29;;;;;;;1.38;0.20;;;;;;;;;;5055496;28;20017;-64
2022/01/03 07:45:54;;;;;;;0.40;0.20;;;;;;;;;;5055240;28;20365;-64
2022/01/03 07:48:19;;;;;;;0.63;0.35;;;;;;;;;;5055375;28;20025;-64
2022/01/03 07:50:45;;;;;;;0.60;0.15;;;;;;;;;;5055243;28;20460;-64
2022/01/03 07:53:10;;;;;;;0.20;0.10;;;;;;;;;;5055218;28;20379;-63
2022/01/03 07:55:35;;;;;;;0.30;0.20;;;;;;;;;;5055274;28;20036;-64
2022/01/03 07:58:00;;;;;;;0.60;0.20;;;;;;;;;;5055066;28;20258;-64
2022/01/03 08:00:26;;;;;;;0.63;0.10;;;;;;;;;;5055191;28;20350;-63
2022/01/03 08:02:51;;;;;;;0.50;0.30;;;;;;;;;;5054877;28;20242;-63
2022/01/03 08:05:16;;;;;;;0.60;0.40;;;;;;;;;;5054734;28;20127;-64
2022/01/03 08:07:43;;;;;;;0.50;0.20;;;;;;;;;;5054916;28;20036;-64
2022/01/03 08:10:09;;;;;;;0.52;0.25;;;;;;;;;;5055174;28;20036;-64
2022/01/03 08:12:34;;;;;;;1.20;0.43;;;;;;;;;;5055058;28;20368;-64
2022/01/03 08:14:59;;;;;;;0.13;0.10;;;;;;;;;;5054680;28;20036;-64
2022/01/03 08:17:25;;;;;;;0.75;0.47;;;;;;;;;;5054819;28;20024;-63
2022/01/03 08:19:51;;;;;;;0.30;0.30;;;;;;;;;;5054701;28;20456;-63
2022/01/03 08:22:17;;;;;;;0.85;0.30;;;;;;;;;;5054986;28;20013;-63
2022/01/03 08:24:42;;;;;;;1.13;0.20;;;;;;;;;;5045729;28;20017;-62
2022/01/03 08:27:07;;;;;;;0.45;0.20;;;;;;;;;;5034725;28;20373;-61
2022/01/03 08:29:33;;;;;;;0.50;0.20;;;;;;;;;;5034542;28;20053;-63
2022/01/03 08:31:58;;;;;;;0.52;0.13;;;;;;;;;;5034473;28;20377;-63
2022/01/03 08:34:23;;;;;;;0.83;0.17;;;;;;;;;;5034572;28;20100;-63
2022/01/03 08:36:48;;;;;;;0.20;0.20;;;;;;;;;;5034388;28;20706;-63
2022/01/03 08:39:14;;;;;;;1.33;0.50;;;;;;;;;;5034515;28;20239;-63
2022/01/03 08:41:39;;;;;;;0.90;0.10;;;;;;;;;;5033595;28;20251;-63
2022/01/03 08:44:04;;;;;;;1.13;0.20;;;;;;;;;;5034328;28;20024;-64
2022/01/03 08:46:30;;;;;;;0.50;0.10;;;;;;;;;;5034406;28;20045;-64
2022/01/03 08:48:55;;;;;;;0.25;0.20;;;;;;;;;;5033990;28;20033;-64
2022/01/03 08:51:21;;;;;;;0.30;0.10;;;;;;;;;;5034244;28;20464;-64
2022/01/03 08:53:46;;;;;;;1.02;0.25;;;;;;;;;;5034167;28;20251;-64
2022/01/03 08:56:11;;;;;;;0.63;0.15;;;;;;;;;;5034143;28;20035;-63
2022/01/03 08:58:37;;;;;;;0.55;0.32;;;;;;;;;;5034183;28;20491;-63
2022/01/03 09:01:02;;;;;;;0.70;0.40;;;;;;;;;;5033881;28;20480;-63
2022/01/03 09:03:27;;;;;;;0.80;0.13;;;;;;;;;;5033819;28;20472;-64
2022/01/03 09:05:54;;;;;;;0.40;0.20;;;;;;;;;;5034032;28;20392;-63
2022/01/03 09:08:21;;;;;;;0.98;0.35;;;;;;;;;;5033880;28;20021;-64
2022/01/03 09:10:47;;;;;;;1.00;0.30;;;;;;;;;;5033835;28;20017;-64
2022/01/03 09:13:12;;;;;;;0.47;0.20;;;;;;;;;;5033736;28;20025;-64
2022/01/03 09:15:37;;;;;;;0.75;0.20;;;;;;;;;;5034199;28;20100;-64
2022/01/03 09:18:03;;;;;;;1.00;0.10;;;;;;;;;;5027123;28;20108;-64
2022/01/03 09:20:28;;;;;;;0.65;0.08;;;;;;;;;;5037384;28;20037;-64
2022/01/03 09:22:56;;;;;;;0.40;0.10;;;;;;;;;;5033449;28;20032;-64
2022/01/03 09:30:47;;;;;;;0.32;0.20;;;;;;;;;;5039054;28;20028;-62
2022/01/03 09:33:12;;;;;;;0.40;0.17;;;;;;;;;;5033348;28;20022;-64
2022/01/03 09:35:37;;;;;;;0.70;0.13;;;;;;;;;;5033412;28;20040;-63
2022/01/03 09:38:03;;;;;;;0.82;0.20;;;;;;;;;;5033543;28;20020;-63
2022/01/03 09:40:28;;;;;;;0.73;0.17;;;;;;;;;;5033401;28;20024;-63
2022/01/03 09:42:56;;;;;;;1.07;0.20;;;;;;;;;;5033326;28;20247;-64
2022/01/03 09:45:21;;;;;;;1.25;0.40;;;;;;;;;;5033159;28;20255;-63
2022/01/03 09:47:49;;;;;;;1.23;0.30;;;;;;;;;;5033016;28;20021;-63
2022/01/03 09:50:20;;;;;;;0.98;0.10;;;;;;;;;;5033149;28;20484;-62
2022/01/03 09:52:46;;;;;;;1.15;0.30;;;;;;;;;;5032633;28;20017;-64
2022/01/03 09:55:12;;;;;;;0.20;0.10;;;;;;;;;;5033203;28;20013;-62
2022/01/03 09:57:37;;;;;;;0.45;0.22;;;;;;;;;;5033170;28;20032;-62
2022/01/03 10:00:03;;;;;;;0.80;0.30;;;;;;;;;;5032768;28;20025;-63
2022/01/03 10:02:28;;;;;;;0.43;0.13;;;;;;;;;;5032993;28;20028;-63
2022/01/03 10:04:54;;;;;;;1.42;0.22;;;;;;;;;;5025847;28;20050;-63
2022/01/03 10:07:20;;;;;;;0.35;0.00;;;;;;;;;;5032761;28;20087;-63
2022/01/03 10:09:45;;;;;;;0.30;0.20;;;;;;;;;;5032735;28;20018;-63
2022/01/03 10:12:12;;;;;;;1.00;0.10;;;;;;;;;;5032880;28;20059;-64
2022/01/03 10:14:37;;;;;;;0.30;0.22;;;;;;;;;;5032838;28;20026;-64
2022/01/03 10:17:02;;;;;;;1.25;0.20;;;;;;;;;;5015000;28;20120;-64
2022/01/03 10:19:28;;;;;;;0.10;0.10;;;;;;;;;;5032554;28;20030;-64
2022/01/03 10:21:53;;;;;;;0.47;0.17;;;;;;;;;;5032475;28;20029;-64
2022/01/03 10:24:19;;;;;;;0.40;0.20;;;;;;;;;;5032632;28;20473;-64
2022/01/03 10:26:51;;;;;;;0.57;0.13;;;;;;;;;;5032474;28;20729;-64
2022/01/03 10:29:22;;;;;;;0.60;0.13;;;;;;;;;;5032659;28;20021;-64
2022/01/03 10:31:49;;;;;;;0.32;0.13;;;;;;;;;;5032440;28;20028;-64
2022/01/03 10:34:16;;;;;;;0.70;0.20;;;;;;;;;;5014497;28;20022;-64
2022/01/03 10:36:46;;;;;;;0.10;0.00;;;;;;;;;;5032605;28;20048;-64
2022/01/03 10:39:12;;;;;;;1.70;0.17;;;;;;;;;;5032223;28;20017;-63
2022/01/03 10:41:38;;;;;;;1.90;1.02;;;;;;;;;;5032491;28;20049;-64
2022/01/03 10:44:03;;;;;;;0.60;0.20;;;;;;;;;;5032439;28;20045;-63
2022/01/03 10:46:29;;;;;;;0.73;0.20;;;;;;;;;;5031300;28;20079;-64
2022/01/03 10:49:05;;;;;;;0.38;0.10;;;;;;;;;;5031894;28;20170;-63
2022/01/03 10:51:30;;;;;;;0.30;0.20;;;;;;;;;;5032072;28;20022;-64
2022/01/03 10:53:56;;;;;;;0.70;0.40;;;;;;;;;;5030032;28;20068;-62
2022/01/03 10:56:23;;;;;;;1.35;0.30;;;;;;;;;;5029993;28;20513;-65
2022/01/03 10:58:48;;;;;;;0.82;0.28;;;;;;;;;;5028928;28;20052;-63
2022/01/03 11:01:21;;;;;;;0.55;0.20;;;;;;;;;;5029240;28;20049;-62
2022/01/03 11:03:47;;;;;;;0.32;0.20;;;;;;;;;;5032950;28;20034;-63
2022/01/03 11:06:22;;;;;;;1.60;0.20;;;;;;;;;;5036125;28;20101;-62
2022/01/03 11:11:36;;;;;;;0.30;0.10;;;;;;;;;;5036107;28;20087;-63
2022/01/03 11:14:01;;;;;;;0.85;0.08;;;;;;;;;;5035941;28;20021;-64
2022/01/03 11:16:39;;;;;;;0.40;0.20;;;;;;;;;;5036089;28;20632;-64
2022/01/03 11:19:04;;;;;;;0.93;0.15;;;;;;;;;;5035838;28;20127;-63
2022/01/03 11:21:31;;;;;;;0.75;0.20;;;;;;;;;;5035908;28;20505;-64
2022/01/03 11:24:09;;;;;;;0.50;0.25;;;;;;;;;;5038091;28;20026;-64
2022/01/03 11:26:35;;;;;;;0.22;0.20;;;;;;;;;;5055890;28;20039;-64
2022/01/03 11:29:01;;;;;;;1.73;0.40;;;;;;;;;;5055437;28;20035;-64
2022/01/03 11:31:28;;;;;;;0.65;0.17;;;;;;;;;;5055642;28;20017;-63
2022/01/03 11:33:53;;;;;;;0.30;0.22;;;;;;;;;;5055518;28;20017;-64
2022/01/03 11:36:20;;;;;;;0.20;0.13;;;;;;;;;;5055667;28;20024;-64
2022/01/03 11:38:45;;;;;;;0.70;0.10;;;;;;;;;;5055395;28;20601;-64
2022/01/03 11:41:12;;;;;;;1.02;0.17;;;;;;;;;;5055307;28;20029;-63
2022/01/03 11:43:38;;;;;;;0.65;0.30;;;;;;;;;;5055584;28;20406;-64
2022/01/03 11:46:04;;;;;;;0.40;0.22;;;;;;;;;;5055269;28;20029;-64
2022/01/03 11:48:29;;;;;;;0.47;0.10;;;;;;;;;;5044728;28;20021;-64
2022/01/03 11:50:56;;;;;;;0.70;0.27;;;;;;;;;;5035116;28;20300;-64
2022/01/03 11:53:23;;;;;;;0.20;0.05;;;;;;;;;;5034192;28;20267;-64
2022/01/03 11:55:55;;;;;;;1.85;0.22;;;;;;;;;;5034412;28;20017;-64
2022/01/03 11:58:55;;;;;;;0.93;0.30;;;;;;;;;;5016565;28;20543;-63
2022/01/03 12:04:14;;;;;;;1.40;0.20;;;;;;;;;;5015299;28;20072;-64
2022/01/03 12:06:41;;;;;;;0.57;0.10;;;;;;;;;;4997666;28;20465;-64
2022/01/03 12:09:13;;;;;;;1.20;0.45;;;;;;;;;;5015121;28;20105;-64
2022/01/03 12:11:56;;;;;;;1.38;0.22;;;;;;;;;;5015312;28;20462;-64
2022/01/03 12:14:21;;;;;;;0.98;0.20;;;;;;;;;;5015054;28;20457;-64
2022/01/03 12:16:53;;;;;;;1.10;0.10;;;;;;;;;;5014994;28;20018;-63
2022/01/03 12:19:21;;;;;;;0.57;0.40;;;;;;;;;;5015358;28;20072;-64
2022/01/03 12:21:53;;;;;;;0.47;0.10;;;;;;;;;;5015000;28;20026;-64
2022/01/03 12:24:30;;;;;;;0.80;0.40;;;;;;;;;;5025882;28;20017;-64
2022/01/03 12:27:19;;;;;;;0.68;0.10;;;;;;;;;;5054455;28;20028;-64
2022/01/03 12:29:54;;;;;;;0.30;0.10;;;;;;;;;;5054034;28;20456;-64
2022/01/03 12:32:19;;;;;;;;;;;;;;;;;;5054580;28;20498;-64
2022/01/03 12:34:44;;;;;;;0.65;0.20;;;;;;;;;;5050106;28;20322;-64
2022/01/03 12:37:17;;;;;;;0.75;0.30;;;;;;;;;;5032695;28;20034;-64
2022/01/03 12:40:00;;;;;;;1.13;0.20;;;;;;;;;;5033284;28;20412;-65
2022/01/03 12:42:44;;;;;;;0.60;0.20;;;;;;;;;;5032450;28;20384;-64
2022/01/03 12:45:09;;;;;;;0.23;0.20;;;;;;;;;;5034193;28;20064;-64
2022/01/03 12:47:38;;;;;;;0.77;0.20;;;;;;;;;;5034247;28;20399;-64
2022/01/03 12:50:27;;;;;;;0.65;0.20;;;;;;;;;;5035474;28;20097;-64
2022/01/03 12:52:54;;;;;;;0.77;0.10;;;;;;;;;;5032957;28;20476;-63
2022/01/03 12:55:38;;;;;;;1.38;0.20;;;;;;;;;;5028782;28;20041;-63
2022/01/03 12:58:16;;;;;;;0.60;0.20;;;;;;;;;;5039405;28;20527;-63
2022/01/03 13:00:58;;;;;;;0.13;0.10;;;;;;;;;;5035524;28;20022;-64
2022/01/03 13:03:29;;;;;;;0.68;0.10;;;;;;;;;;5033134;28;20017;-64
2022/01/03 13:06:03;;;;;;;1.17;0.30;;;;;;;;;;5032994;28;20037;-64
2022/01/03 13:08:28;;;;;;;1.20;0.38;;;;;;;;;;5029625;28;20108;-64
2022/01/03 13:11:08;;;;;;;0.57;0.25;;;;;;;;;;5032894;28;20105;-64
2022/01/03 13:13:33;;;;;;;0.20;0.13;;;;;;;;;;5047232;28;20452;-64
2022/01/03 13:15:58;;;;;;;0.50;0.20;;;;;;;;;;5041443;28;20029;-64
2022/01/03 13:18:24;;;;;;;0.20;0.10;;;;;;;;;;5035384;28;20029;-65
2022/01/03 13:20:56;;;;;;;1.85;0.20;;;;;;;;;;5033175;28;20730;-65
2022/01/03 13:23:21;;;;;;;0.65;0.17;;;;;;;;;;5032943;28;20040;-65
2022/01/03 13:25:46;;;;;;;0.73;0.40;;;;;;;;;;5040460;28;20094;-64
2022/01/03 13:28:11;;;;;;;0.90;0.30;;;;;;;;;;5031878;28;20083;-64
2022/01/03 13:30:36;;;;;;;1.73;0.20;;;;;;;;;;5033179;28;20025;-65
2022/01/03 13:33:02;;;;;;;0.68;0.10;;;;;;;;;;5032793;28;20346;-64
2022/01/03 13:35:27;;;;;;;0.43;0.30;;;;;;;;;;5032902;28;20017;-64
2022/01/03 13:37:52;;;;;;;1.50;0.20;;;;;;;;;;5033139;28;20036;-64
2022/01/03 13:40:20;;;;;;;0.97;0.40;;;;;;;;;;5024892;28;20484;-64
2022/01/03 13:43:01;;;;;;;0.47;0.10;;;;;;;;;;5032285;28;20495;-64
2022/01/03 13:50:42;;;;;;;1.15;0.30;;;;;;;;;;5036786;28;20064;-64
2022/01/03 13:53:08;;;;;;;0.10;0.10;;;;;;;;;;5032381;28;20049;-64
2022/01/03 13:55:34;;;;;;;0.80;0.10;;;;;;;;;;5032660;28;20544;-64
2022/01/03 13:58:02;;;;;;;1.45;0.30;;;;;;;;;;5016353;28;20373;-63
2022/01/03 14:00:28;;;;;;;1.45;0.32;;;;;;;;;;5022827;28;20014;-64
2022/01/03 14:02:53;;;;;;;1.02;0.35;;;;;;;;;;5015215;28;20361;-63
2022/01/03 14:05:19;;;;;;;0.60;0.20;;;;;;;;;;5011489;28;20045;-63
2022/01/03 14:07:51;;;;;;;1.27;0.22;;;;;;;;;;5007653;28;20098;-64
2022/01/03 14:10:17;;;;;;;0.45;0.28;;;;;;;;;;5014442;28;20018;-63
2022/01/03 14:12:48;;;;;;;1.70;0.47;;;;;;;;;;5011724;28;20497;-64
2022/01/03 14:15:15;;;;;;;0.45;0.20;;;;;;;;;;5002448;28;20267;-63
2022/01/03 14:17:48;;;;;;;1.92;0.40;;;;;;;;;;5001607;28;20020;-64
2022/01/03 14:20:13;;;;;;;0.70;0.20;;;;;;;;;;5011092;28;20028;-64
2022/01/03 14:22:38;;;;;;;0.60;0.30;;;;;;;;;;5008382;28;20022;-64
2022/01/03 14:25:06;;;;;;;1.05;0.20;;;;;;;;;;5008214;28;20101;-64
2022/01/03 14:27:40;;;;;;;0.57;0.20;;;;;;;;;;5000166;28;20112;-64
2022/01/03 14:30:16;;;;;;;0.85;0.30;;;;;;;;;;5004063;28;20387;-64
2022/01/03 14:32:41;;;;;;;0.50;0.20;;;;;;;;;;5003163;28;20030;-64
2022/01/03 14:35:07;;;;;;;0.82;0.20;;;;;;;;;;4996342;28;20383;-64
2022/01/03 14:37:33;;;;;;;0.50;0.00;;;;;;;;;;5000863;28;20426;-65
2022/01/03 14:39:59;;;;;;;1.23;0.20;;;;;;;;;;4998176;28;20022;-64
2022/01/03 14:42:25;;;;;;;0.20;0.20;;;;;;;;;;5009459;28;20439;-65
2022/01/03 14:44:51;;;;;;;1.08;0.32;;;;;;;;;;4998072;28;20030;-64
2022/01/03 14:47:16;;;;;;;0.32;0.10;;;;;;;;;;4992732;28;20022;-64
2022/01/03 14:49:55;;;;;;;0.47;0.20;;;;;;;;;;4996234;28;20033;-64
2022/01/03 14:52:31;;;;;;;0.35;0.10;;;;;;;;;;4992017;28;20030;-64
2022/01/03 14:54:56;;;;;;;0.50;0.17;;;;;;;;;;4999157;28;20018;-64
2022/01/03 14:57:26;;;;;;;0.22;0.17;;;;;;;;;;5001926;28;20109;-64
2022/01/03 14:59:52;;;;;;;0.20;0.10;;;;;;;;;;5014124;28;20057;-64
2022/01/03 15:02:17;;;;;;;0.93;0.10;;;;;;;;;;5011644;28;20065;-64
2022/01/03 15:04:42;;;;;;;0.70;0.20;;;;;;;;;;5024147;28;20526;-64
2022/01/03 15:07:11;;;;;;;1.13;0.30;;;;;;;;;;5031138;28;20083;-64